createdAt,value
2018-02-24T00:02:17.026Z,102147
2018-02-24T00:04:46.900Z,102153
2018-02-24T00:07:17.080Z,102150
2018-02-24T00:09:46.958Z,102152
2018-02-24T00:12:16.859Z,102157
2018-02-24T00:14:46.695Z,102153
2018-02-24T00:17:16.817Z,102160
2018-02-24T00:19:46.646Z,102161
2018-02-24T00:22:16.629Z,102161
2018-02-24T00:24:46.478Z,102154
2018-02-24T00:27:16.371Z,102152
2018-02-24T00:29:46.507Z,102147
2018-02-24T00:32:16.429Z,102152
2018-02-24T00:34:47.222Z,102152
2018-02-24T00:37:17.062Z,102146
2018-02-24T00:39:46.950Z,102154
2018-02-24T00:42:16.905Z,102158
2018-02-24T00:44:46.749Z,102157
2018-02-24T00:47:16.690Z,102152
2018-02-24T00:49:46.516Z,102154
2018-02-24T00:52:16.379Z,102151
2018-02-24T00:54:46.294Z,102162
2018-02-24T00:57:16.148Z,102145
2018-02-24T00:59:46.002Z,102151
2018-02-24T01:02:15.965Z,102146
2018-02-24T01:04:45.919Z,102145
2018-02-24T01:07:16.790Z,102145
2018-02-24T01:09:46.624Z,102137
2018-02-24T01:12:16.795Z,102140
2018-02-24T01:14:46.771Z,102140
2018-02-24T01:17:16.641Z,102138
2018-02-24T01:19:46.474Z,102143
2018-02-24T01:22:16.507Z,102138
2018-02-24T01:24:46.416Z,102138
2018-02-24T01:27:16.294Z,102144
2018-02-24T01:29:46.193Z,102144
2018-02-24T01:32:16.096Z,101821
2018-02-24T01:34:45.964Z,102147
2018-02-24T01:37:15.814Z,102138
2018-02-24T01:39:47.055Z,102137
2018-02-24T01:42:16.938Z,102138
2018-02-24T01:44:46.794Z,102137
2018-02-24T01:47:16.670Z,102146
2018-02-24T01:49:46.586Z,102139
2018-02-24T01:52:16.437Z,102141
2018-02-24T01:54:46.311Z,102141
2018-02-24T01:57:16.174Z,102140
2018-02-24T01:59:46.022Z,102147
2018-02-24T02:02:16.130Z,102146
2018-02-24T02:04:45.970Z,102146
2018-02-24T02:07:15.915Z,102140
2018-02-24T02:09:45.748Z,102147
2018-02-24T02:12:16.040Z,102153
2018-02-24T02:14:45.870Z,102152
2018-02-24T02:17:15.771Z,102148
2018-02-24T02:19:45.587Z,102149
2018-02-24T02:22:15.498Z,102150
2018-02-24T02:24:45.346Z,102139
2018-02-24T02:27:15.187Z,102137
2018-02-24T02:29:45.055Z,102137
2018-02-24T02:32:14.989Z,102143
2018-02-24T02:34:44.883Z,102146
2018-02-24T02:37:14.705Z,102145
2018-02-24T02:39:44.606Z,102151
2018-02-24T02:42:14.474Z,102149
2018-02-24T02:44:44.378Z,102141
2018-02-24T02:47:14.209Z,102146
2018-02-24T02:49:44.059Z,102153
2018-02-24T02:52:13.934Z,102153
2018-02-24T02:54:43.789Z,102151
2018-02-24T02:57:13.642Z,102149
2018-02-24T02:59:43.472Z,102154
2018-02-24T03:02:13.337Z,102159
2018-02-24T03:04:43.183Z,102161
2018-02-24T03:07:13.019Z,102156
2018-02-24T03:09:42.999Z,102161
2018-02-24T03:12:12.846Z,102181
2018-02-24T03:14:42.796Z,102163
2018-02-24T03:17:12.635Z,102161
2018-02-24T03:19:42.590Z,102167
2018-02-24T03:22:12.418Z,102163
2018-02-24T03:24:42.271Z,102172
2018-02-24T03:27:12.145Z,102169
2018-02-24T03:29:41.969Z,102163
2018-02-24T03:32:12.138Z,102166
2018-02-24T03:34:42.107Z,102160
2018-02-24T03:37:12.097Z,102172
2018-02-24T03:39:41.936Z,102167
2018-02-24T03:42:11.895Z,102172
2018-02-24T03:44:41.745Z,102178
2018-02-24T03:47:11.703Z,102172
2018-02-24T03:49:41.552Z,102179
2018-02-24T03:52:11.543Z,102182
2018-02-24T03:54:41.385Z,102186
2018-02-24T03:57:11.236Z,102193
2018-02-24T03:59:41.177Z,102192
2018-02-24T04:02:11.018Z,102196
2018-02-24T04:04:40.891Z,102211
2018-02-24T04:07:10.724Z,102204
2018-02-24T04:09:40.929Z,102210
2018-02-24T04:12:10.765Z,102211
2018-02-24T04:14:40.654Z,102212
2018-02-24T04:17:10.526Z,102219
2018-02-24T04:19:40.474Z,102209
2018-02-24T04:22:10.303Z,102217
2018-02-24T04:24:40.167Z,102218
2018-02-24T04:27:10.056Z,102228
2018-02-24T04:29:39.843Z,102220
2018-02-24T04:32:09.740Z,102225
2018-02-24T04:34:39.597Z,102231
2018-02-24T04:37:09.822Z,102235
2018-02-24T04:39:39.675Z,102222
2018-02-24T04:42:09.580Z,102233
2018-02-24T04:44:39.409Z,102231
2018-02-24T04:47:09.280Z,102231
2018-02-24T04:49:39.167Z,102229
2018-02-24T04:52:08.998Z,102220
2018-02-24T04:54:39.206Z,102225
2018-02-24T04:57:09.028Z,102241
2018-02-24T04:59:38.914Z,102232
2018-02-24T05:02:08.746Z,102236
2018-02-24T05:04:38.635Z,102245
2018-02-24T05:07:08.465Z,102244
2018-02-24T05:09:38.298Z,102245
2018-02-24T05:12:08.128Z,102250
2018-02-24T05:14:37.981Z,102244
2018-02-24T05:17:07.848Z,102245
2018-02-24T05:19:37.676Z,102237
2018-02-24T05:22:07.518Z,102254
2018-02-24T05:24:37.347Z,102251
2018-02-24T05:27:07.196Z,102251
2018-02-24T05:29:37.013Z,102249
2018-02-24T05:32:06.873Z,102249
2018-02-24T05:34:36.730Z,102244
2018-02-24T05:37:06.560Z,102242
2018-02-24T05:39:36.405Z,102243
2018-02-24T05:42:06.242Z,102239
2018-02-24T05:44:36.092Z,102245
2018-02-24T05:47:05.934Z,102245
2018-02-24T05:49:35.758Z,102254
2018-02-24T05:52:05.632Z,102248
2018-02-24T05:54:35.468Z,102261
2018-02-24T05:57:05.318Z,102251
2018-02-24T05:59:35.149Z,102254
2018-02-24T06:02:04.985Z,102267
2018-02-24T06:04:35.170Z,102262
2018-02-24T06:07:05.030Z,102259
2018-02-24T06:09:34.960Z,102261
2018-02-24T06:12:04.788Z,102273
2018-02-24T06:14:34.880Z,102268
2018-02-24T06:17:04.711Z,102271
2018-02-24T06:19:34.918Z,102265
2018-02-24T06:22:04.730Z,102263
2018-02-24T06:24:34.608Z,102275
2018-02-24T06:27:04.428Z,102269
2018-02-24T06:29:34.277Z,102273
2018-02-24T06:32:04.124Z,102279
2018-02-24T06:34:33.963Z,102274
2018-02-24T06:37:03.903Z,102276
2018-02-24T06:39:33.741Z,102265
2018-02-24T06:42:03.596Z,102275
2018-02-24T06:44:33.521Z,102275
2018-02-24T06:47:03.368Z,102271
2018-02-24T06:49:33.196Z,102274
2018-02-24T06:52:03.065Z,102279
2018-02-24T06:54:33.198Z,102282
2018-02-24T06:57:03.204Z,102282
2018-02-24T06:59:33.052Z,102285
2018-02-24T07:02:02.896Z,102292
2018-02-24T07:04:32.874Z,102282
2018-02-24T07:07:02.707Z,102286
2018-02-24T07:09:32.612Z,102279
2018-02-24T07:12:02.437Z,102283
2018-02-24T07:14:32.290Z,102302
2018-02-24T07:17:02.186Z,102296
2018-02-24T07:19:32.053Z,102293
2018-02-24T07:22:01.923Z,102291
2018-02-24T07:24:31.751Z,102294
2018-02-24T07:27:01.696Z,102303
2018-02-24T07:29:31.556Z,102311
2018-02-24T07:32:01.417Z,102310
2018-02-24T07:34:31.417Z,102318
2018-02-24T07:37:01.305Z,102311
2018-02-24T07:39:31.146Z,102313
2018-02-24T07:42:01.041Z,102318
2018-02-24T07:44:30.909Z,102324
2018-02-24T07:47:00.776Z,102311
2018-02-24T07:49:30.913Z,102326
2018-02-24T07:52:00.818Z,102323
2018-02-24T07:54:30.674Z,102331
2018-02-24T07:57:00.584Z,102321
2018-02-24T07:59:30.545Z,102319
2018-02-24T08:02:00.356Z,102316
2018-02-24T08:04:30.188Z,102316
2018-02-24T08:07:00.129Z,102305
2018-02-24T08:09:29.986Z,102315
2018-02-24T08:11:59.920Z,102316
2018-02-24T08:14:29.797Z,102309
2018-02-24T08:17:00.030Z,102313
2018-02-24T08:19:29.935Z,102323
2018-02-24T08:21:59.762Z,102326
2018-02-24T08:24:29.632Z,102330
2018-02-24T08:26:59.564Z,102334
2018-02-24T08:29:29.402Z,102335
2018-02-24T08:31:59.348Z,102345
2018-02-24T08:34:29.238Z,102334
2018-02-24T08:36:59.082Z,102348
2018-02-24T08:39:28.936Z,102339
2018-02-24T08:41:58.860Z,102344
2018-02-24T08:44:28.725Z,102346
2018-02-24T08:46:58.543Z,102342
2018-02-24T08:49:28.417Z,102349
2018-02-24T08:51:58.328Z,102335
2018-02-24T08:54:28.189Z,102349
2018-02-24T08:56:58.067Z,102349
2018-02-24T08:59:27.918Z,102354
2018-02-24T09:01:57.887Z,102364
2018-02-24T09:04:27.795Z,102365
2018-02-24T09:06:57.685Z,102362
2018-02-24T09:09:27.655Z,102359
2018-02-24T09:11:57.592Z,102367
2018-02-24T09:14:27.441Z,102370
2018-02-24T09:16:57.312Z,102367
2018-02-24T09:19:27.154Z,102367
2018-02-24T09:21:56.992Z,102368
2018-02-24T09:24:26.854Z,102371
2018-02-24T09:26:56.688Z,102372
2018-02-24T09:29:26.603Z,102378
2018-02-24T09:31:56.435Z,102373
2018-02-24T09:34:26.934Z,102385
2018-02-24T09:36:56.890Z,102389
2018-02-24T09:39:26.772Z,102392
2018-02-24T09:41:56.767Z,102386
2018-02-24T09:44:26.632Z,102388
2018-02-24T09:46:56.470Z,102393
2018-02-24T09:49:26.352Z,102392
2018-02-24T09:51:56.180Z,102391
2018-02-24T09:54:26.020Z,102390
2018-02-24T09:56:55.870Z,102385
2018-02-24T09:59:25.729Z,102392
2018-02-24T10:01:55.579Z,102392
2018-02-24T10:04:25.422Z,102369
2018-02-24T10:06:55.301Z,102372
2018-02-24T10:09:25.145Z,102375
2018-02-24T10:11:55.080Z,102376
2018-02-24T10:14:25.000Z,102384
2018-02-24T10:16:54.835Z,102318
2018-02-24T10:19:25.258Z,102364
2018-02-24T10:21:55.099Z,102372
2018-02-24T10:24:24.955Z,102383
2018-02-24T10:26:54.783Z,102378
2018-02-24T10:29:24.881Z,102317
2018-02-24T10:31:58.950Z,102384
2018-02-24T10:34:29.009Z,102386
2018-02-24T10:36:58.883Z,102388
2018-02-24T10:39:28.734Z,102390
2018-02-24T10:41:58.612Z,102381
2018-02-24T10:44:28.520Z,102392
2018-02-24T10:46:58.492Z,102393
2018-02-24T10:49:28.369Z,102383
2018-02-24T10:51:58.317Z,102386
2018-02-24T10:54:28.171Z,102135
2018-02-24T10:56:58.080Z,102401
2018-02-24T10:59:27.918Z,102402
2018-02-24T11:01:57.845Z,102395
2018-02-24T11:04:27.699Z,102407
2018-02-24T11:06:57.564Z,102401
2018-02-24T11:09:27.554Z,102403
2018-02-24T11:11:57.563Z,102413
2018-02-24T11:14:27.397Z,102406
2018-02-24T11:16:57.340Z,102410
2018-02-24T11:19:27.285Z,102406
2018-02-24T11:21:57.146Z,102411
2018-02-24T11:24:27.290Z,102400
2018-02-24T11:27:00.427Z,102399
2018-02-24T11:29:30.993Z,102394
2018-02-24T11:32:01.386Z,102390
2018-02-24T11:34:31.391Z,102400
2018-02-24T11:37:01.242Z,102384
2018-02-24T11:39:36.925Z,102399
2018-02-24T11:42:06.772Z,102394
2018-02-24T11:44:36.640Z,102393
2018-02-24T11:47:06.490Z,102391
2018-02-24T11:49:36.382Z,102387
2018-02-24T11:52:06.225Z,102377
2018-02-24T11:54:37.086Z,102391
2018-02-24T11:57:06.960Z,102382
2018-02-24T11:59:36.813Z,102389
2018-02-24T12:02:06.719Z,102391
2018-02-24T12:04:36.572Z,102396
2018-02-24T12:07:07.663Z,102399
2018-02-24T12:09:37.579Z,102398
2018-02-24T12:12:07.577Z,102401
2018-02-24T12:14:37.432Z,102397
2018-02-24T12:17:07.285Z,102402
2018-02-24T12:19:37.209Z,102404
2018-02-24T12:22:07.042Z,102399
2018-02-24T12:24:36.956Z,102408
2018-02-24T12:27:06.810Z,102397
2018-02-24T12:29:36.712Z,102400
2018-02-24T12:32:06.541Z,102431
2018-02-24T12:34:36.601Z,102422
2018-02-24T12:37:06.429Z,102404
2018-02-24T12:39:36.289Z,102403
2018-02-24T12:42:06.187Z,102392
2018-02-24T12:44:35.991Z,102416
2018-02-24T12:47:05.900Z,102392
2018-02-24T12:49:35.772Z,102405
2018-02-24T12:52:05.767Z,102406
2018-02-24T12:54:35.634Z,102402
2018-02-24T12:57:05.489Z,102391
2018-02-24T12:59:35.434Z,102393
2018-02-24T13:02:05.291Z,102404
2018-02-24T13:04:35.164Z,102397
2018-02-24T13:07:05.002Z,102408
2018-02-24T13:09:34.869Z,102395
2018-02-24T13:12:04.688Z,102395
2018-02-24T13:14:34.564Z,102405
2018-02-24T13:17:04.399Z,102405
2018-02-24T13:19:34.263Z,102398
2018-02-24T13:22:04.123Z,102397
2018-02-24T13:24:34.035Z,102398
2018-02-24T13:27:03.907Z,102391
2018-02-24T13:29:33.765Z,102402
2018-02-24T13:32:03.643Z,102386
2018-02-24T13:34:33.571Z,102383
2018-02-24T13:37:04.099Z,102390
2018-02-24T13:39:33.948Z,102394
2018-02-24T13:42:03.846Z,102382
2018-02-24T13:44:33.719Z,102401
2018-02-24T13:47:03.652Z,102408
2018-02-24T13:49:34.381Z,102405
2018-02-24T13:52:04.274Z,102387
2018-02-24T13:54:34.144Z,102384
2018-02-24T13:57:03.997Z,102396
2018-02-24T13:59:33.850Z,102394
2018-02-24T14:02:03.730Z,102387
2018-02-24T14:04:33.601Z,102386
2018-02-24T14:07:03.458Z,102400
2018-02-24T14:09:33.887Z,102390
2018-02-24T14:12:05.042Z,102394
2018-02-24T14:14:34.983Z,102392
2018-02-24T14:17:04.896Z,102405
2018-02-24T14:19:34.766Z,102403
2018-02-24T14:22:05.625Z,102405
2018-02-24T14:24:36.956Z,102399
2018-02-24T14:27:45.090Z,102397
2018-02-24T14:32:55.791Z,102397
2018-02-24T15:21:30.442Z,102413
2018-02-24T15:24:00.343Z,102406
2018-02-24T15:26:30.310Z,102414
2018-02-24T15:29:02.942Z,102417
2018-02-24T16:36:10.688Z,102418
2018-02-24T16:38:54.503Z,102418
2018-02-24T16:41:30.913Z,102421
2018-02-24T16:44:00.837Z,102416
2018-02-24T16:46:30.878Z,102421
2018-02-24T16:49:00.835Z,102425
2018-02-24T16:51:30.769Z,102410
2018-02-24T16:54:00.606Z,102426
2018-02-24T16:56:30.545Z,102431
2018-02-24T16:59:00.441Z,102432
2018-02-24T17:01:30.358Z,102436
2018-02-24T17:04:00.221Z,102447
2018-02-24T17:06:30.313Z,102447
2018-02-24T17:09:00.214Z,102451
2018-02-24T17:11:30.078Z,102454
2018-02-24T17:13:59.993Z,102450
2018-02-24T17:19:22.020Z,102470
2018-02-24T17:21:51.891Z,102476
2018-02-24T17:24:21.855Z,102465
2018-02-24T17:26:51.732Z,102464
2018-02-24T17:29:21.687Z,102466
2018-02-24T17:31:54.359Z,102481
2018-02-24T17:34:24.235Z,102480
2018-02-24T17:36:54.086Z,102484
2018-02-24T17:39:23.977Z,102480
2018-02-24T17:41:53.880Z,102480
2018-02-24T17:44:23.826Z,102479
2018-02-24T17:46:53.729Z,102484
2018-02-24T17:49:23.618Z,102499
2018-02-24T17:51:53.468Z,102498
2018-02-24T17:54:23.414Z,102494
2018-02-24T17:56:53.368Z,102500
2018-02-24T17:59:23.274Z,102498
2018-02-24T18:01:53.122Z,102494
2018-02-24T18:04:22.969Z,102487
2018-02-24T18:06:52.890Z,102479
2018-02-24T18:09:22.885Z,102475
2018-02-24T18:11:52.856Z,102483
2018-02-24T18:14:22.718Z,102488
2018-02-24T18:16:52.677Z,102484
2018-02-24T18:22:08.475Z,102481
2018-02-24T18:24:38.773Z,102476
2018-02-24T18:53:41.867Z,102502
2018-02-24T18:56:12.385Z,102512
2018-02-24T18:58:42.320Z,102504
2018-02-24T19:01:12.179Z,102514
2018-02-24T19:03:42.068Z,102518
2018-02-24T19:06:12.007Z,102520
2018-02-24T19:08:41.935Z,102517
2018-02-24T19:11:12.643Z,102520
2018-02-24T19:13:42.577Z,102518
2018-02-24T19:16:12.423Z,102514
2018-02-24T19:18:42.306Z,102515
2018-02-24T19:24:11.156Z,102521
2018-02-24T19:26:41.177Z,102521
2018-02-24T19:29:11.066Z,102518
2018-02-24T19:31:47.166Z,102526
2018-02-24T19:34:17.176Z,102527
2018-02-24T19:36:47.418Z,102535
2018-02-24T19:39:17.360Z,102537
2018-02-24T19:41:47.405Z,102547
2018-02-24T19:44:17.365Z,102542
2018-02-24T19:46:47.245Z,102538
2018-02-24T19:49:17.190Z,102545
2018-02-24T19:51:47.157Z,102556
2018-02-24T19:54:17.165Z,102549
2018-02-24T19:56:47.102Z,102562
2018-02-24T19:59:16.980Z,102557
2018-02-24T20:01:50.309Z,102559
2018-02-24T20:04:20.168Z,102561
2018-02-24T20:06:50.035Z,102555
2018-02-24T20:09:20.458Z,102553
2018-02-24T20:11:50.336Z,102552
2018-02-24T20:14:20.252Z,102550
2018-02-24T20:16:50.115Z,102557
2018-02-24T20:19:21.618Z,102546
2018-02-24T20:21:51.521Z,102552
2018-02-24T20:24:21.439Z,102559
2018-02-24T20:26:51.312Z,102559
2018-02-24T20:29:21.202Z,102563
2018-02-24T20:31:51.082Z,102570
2018-02-24T20:34:20.934Z,102564
2018-02-24T20:36:50.854Z,102563
2018-02-24T20:39:20.716Z,102556
2018-02-24T20:41:50.630Z,102565
2018-02-24T20:44:20.484Z,102562
2018-02-24T20:46:50.384Z,102570
2018-02-24T20:49:21.013Z,102563
2018-02-24T20:51:50.966Z,102570
2018-02-24T20:54:21.659Z,102567
2018-02-24T20:56:51.546Z,102571
2018-02-24T20:59:21.394Z,102566
2018-02-24T21:01:54.821Z,102575
2018-02-24T21:04:24.735Z,102565
2018-02-24T21:06:54.660Z,102576
2018-02-24T21:09:24.522Z,102584
2018-02-24T21:11:54.459Z,102573
2018-02-24T21:14:24.311Z,102573
2018-02-24T21:16:54.190Z,102580
2018-02-24T21:19:24.070Z,102580
2018-02-24T21:21:54.133Z,102577
2018-02-24T21:24:24.122Z,102587
2018-02-24T21:26:54.028Z,102588
2018-02-24T21:29:24.040Z,102591
2018-02-24T21:31:53.894Z,102595
2018-02-24T21:34:23.914Z,102582
2018-02-24T21:36:53.765Z,102588
2018-02-24T21:45:04.691Z,102584
2018-02-24T21:47:34.638Z,102587
2018-02-24T21:50:04.545Z,102587
2018-02-24T21:52:35.932Z,102589
2018-02-24T21:55:05.846Z,102580
2018-02-24T21:57:35.764Z,102586
2018-02-24T22:00:05.679Z,102584
2018-02-24T22:02:35.510Z,102581
2018-02-24T22:05:05.398Z,102594
2018-02-24T22:07:35.263Z,102591
2018-02-24T22:10:05.116Z,102593
2018-02-24T22:12:35.045Z,102586
2018-02-24T22:15:04.982Z,102591
2018-02-24T22:17:34.894Z,102587
2018-02-24T22:20:04.787Z,102598
2018-02-24T22:22:34.665Z,102604
2018-02-24T22:25:04.640Z,102608
2018-02-24T22:27:34.555Z,102606
2018-02-24T22:45:25.218Z,102609
2018-02-24T22:48:00.659Z,102607
2018-02-24T22:53:37.274Z,102611
2018-02-24T22:56:07.192Z,102609
2018-02-24T22:58:37.154Z,102607
